sensor_id;sensor_type;location;lat;lon;timestamp;P1;durP1;ratioP1;P2;durP2;ratioP2
41436;SDS011;27178;49.460;10.850;2023-11-21T00:00:05;1.70;;;1.50;;
41436;SDS011;27178;49.460;10.850;2023-11-21T00:02:39;3.50;;;1.40;;
41436;SDS011;27178;49.460;10.850;2023-11-21T00:05:10;1.55;;;1.05;;
41436;SDS011;27178;49.460;10.850;2023-11-21T00:07:41;1.92;;;1.30;;
41436;SDS011;27178;49.460;10.850;2023-11-21T00:10:10;1.48;;;1.20;;
41436;SDS011;27178;49.460;10.850;2023-11-21T00:12:41;1.63;;;1.30;;
41436;SDS011;27178;49.460;10.850;2023-11-21T00:15:10;1.27;;;1.17;;
41436;SDS011;27178;49.460;10.850;2023-11-21T00:17:38;1.92;;;1.40;;
41436;SDS011;27178;49.460;10.850;2023-11-21T00:20:09;2.97;;;1.23;;
41436;SDS011;27178;49.460;10.850;2023-11-21T00:22:40;2.47;;;1.50;;
41436;SDS011;27178;49.460;10.850;2023-11-21T00:25:10;3.00;;;1.55;;
41436;SDS011;27178;49.460;10.850;2023-11-21T00:27:39;3.10;;;1.67;;
41436;SDS011;27178;49.460;10.850;2023-11-21T00:30:08;1.53;;;1.23;;
41436;SDS011;27178;49.460;10.850;2023-11-21T00:32:36;2.75;;;1.45;;
41436;SDS011;27178;49.460;10.850;2023-11-21T00:35:05;1.58;;;1.40;;
41436;SDS011;27178;49.460;10.850;2023-11-21T00:37:35;1.40;;;1.30;;
41436;SDS011;27178;49.460;10.850;2023-11-21T00:40:05;2.83;;;1.30;;
41436;SDS011;27178;49.460;10.850;2023-11-21T00:42:35;1.75;;;1.20;;
41436;SDS011;27178;49.460;10.850;2023-11-21T00:45:05;1.75;;;1.30;;
41436;SDS011;27178;49.460;10.850;2023-11-21T00:47:35;3.40;;;1.38;;
41436;SDS011;27178;49.460;10.850;2023-11-21T00:50:04;2.35;;;1.40;;
41436;SDS011;27178;49.460;10.850;2023-11-21T00:52:35;2.85;;;1.25;;
41436;SDS011;27178;49.460;10.850;2023-11-21T00:55:04;2.33;;;1.38;;
41436;SDS011;27178;49.460;10.850;2023-11-21T00:57:34;2.25;;;1.33;;
41436;SDS011;27178;49.460;10.850;2023-11-21T01:00:04;5.38;;;1.60;;
41436;SDS011;27178;49.460;10.850;2023-11-21T01:02:35;1.95;;;1.30;;
41436;SDS011;27178;49.460;10.850;2023-11-21T01:05:05;2.83;;;1.30;;
41436;SDS011;27178;49.460;10.850;2023-11-21T01:07:36;2.00;;;1.23;;
41436;SDS011;27178;49.460;10.850;2023-11-21T01:10:04;2.33;;;1.02;;
41436;SDS011;27178;49.460;10.850;2023-11-21T01:12:34;1.45;;;1.08;;
41436;SDS011;27178;49.460;10.850;2023-11-21T01:15:04;2.43;;;1.30;;
41436;SDS011;27178;49.460;10.850;2023-11-21T01:17:34;1.77;;;1.15;;
41436;SDS011;27178;49.460;10.850;2023-11-21T01:20:04;3.45;;;1.58;;
41436;SDS011;27178;49.460;10.850;2023-11-21T01:22:41;1.15;;;1.10;;
41436;SDS011;27178;49.460;10.850;2023-11-21T01:25:10;1.58;;;1.33;;
41436;SDS011;27178;49.460;10.850;2023-11-21T01:27:41;0.95;;;0.95;;
41436;SDS011;27178;49.460;10.850;2023-11-21T01:30:10;1.83;;;1.30;;
41436;SDS011;27178;49.460;10.850;2023-11-21T01:32:38;2.50;;;1.20;;
41436;SDS011;27178;49.460;10.850;2023-11-21T01:35:08;1.35;;;1.25;;
41436;SDS011;27178;49.460;10.850;2023-11-21T01:37:37;1.40;;;1.20;;
41436;SDS011;27178;49.460;10.850;2023-11-21T01:40:07;1.77;;;1.25;;
41436;SDS011;27178;49.460;10.850;2023-11-21T01:42:41;2.70;;;1.15;;
41436;SDS011;27178;49.460;10.850;2023-11-21T01:45:09;1.02;;;0.93;;
41436;SDS011;27178;49.460;10.850;2023-11-21T01:47:40;3.05;;;1.52;;
41436;SDS011;27178;49.460;10.850;2023-11-21T01:50:09;1.38;;;1.20;;
41436;SDS011;27178;49.460;10.850;2023-11-21T01:52:41;1.42;;;1.02;;
41436;SDS011;27178;49.460;10.850;2023-11-21T01:55:14;1.05;;;1.02;;
41436;SDS011;27178;49.460;10.850;2023-11-21T01:57:54;2.55;;;1.55;;
41436;SDS011;27178;49.460;10.850;2023-11-21T02:00:23;1.13;;;1.05;;
41436;SDS011;27178;49.460;10.850;2023-11-21T02:02:56;2.10;;;1.77;;
41436;SDS011;27178;49.460;10.850;2023-11-21T02:05:24;5.82;;;4.50;;
41436;SDS011;27178;49.460;10.850;2023-11-21T02:07:53;3.60;;;2.88;;
41436;SDS011;27178;49.460;10.850;2023-11-21T02:10:24;3.17;;;2.58;;
41436;SDS011;27178;49.460;10.850;2023-11-21T02:12:53;4.10;;;2.55;;
41436;SDS011;27178;49.460;10.850;2023-11-21T02:15:22;2.95;;;2.55;;
41436;SDS011;27178;49.460;10.850;2023-11-21T02:17:53;2.88;;;2.03;;
41436;SDS011;27178;49.460;10.850;2023-11-21T02:20:21;3.60;;;2.42;;
41436;SDS011;27178;49.460;10.850;2023-11-21T02:22:53;3.38;;;2.83;;
41436;SDS011;27178;49.460;10.850;2023-11-21T02:25:25;3.25;;;2.03;;
41436;SDS011;27178;49.460;10.850;2023-11-21T02:27:54;2.72;;;2.30;;
41436;SDS011;27178;49.460;10.850;2023-11-21T02:30:23;2.85;;;2.25;;
41436;SDS011;27178;49.460;10.850;2023-11-21T02:32:54;3.35;;;2.00;;
41436;SDS011;27178;49.460;10.850;2023-11-21T02:35:23;2.45;;;2.03;;
41436;SDS011;27178;49.460;10.850;2023-11-21T02:37:54;6.00;;;2.28;;
41436;SDS011;27178;49.460;10.850;2023-11-21T02:40:22;3.05;;;2.30;;
41436;SDS011;27178;49.460;10.850;2023-11-21T02:42:53;9.18;;;2.67;;
41436;SDS011;27178;49.460;10.850;2023-11-21T02:45:24;3.15;;;2.70;;
41436;SDS011;27178;49.460;10.850;2023-11-21T02:47:52;3.25;;;2.22;;
41436;SDS011;27178;49.460;10.850;2023-11-21T02:50:25;3.30;;;2.60;;
41436;SDS011;27178;49.460;10.850;2023-11-21T02:52:55;3.00;;;2.10;;
41436;SDS011;27178;49.460;10.850;2023-11-21T02:55:27;2.85;;;2.22;;
41436;SDS011;27178;49.460;10.850;2023-11-21T02:57:55;2.55;;;2.10;;
41436;SDS011;27178;49.460;10.850;2023-11-21T03:00:24;2.78;;;2.22;;
41436;SDS011;27178;49.460;10.850;2023-11-21T03:02:53;3.88;;;2.30;;
41436;SDS011;27178;49.460;10.850;2023-11-21T03:05:23;2.80;;;2.50;;
41436;SDS011;27178;49.460;10.850;2023-11-21T03:07:51;2.17;;;1.98;;
41436;SDS011;27178;49.460;10.850;2023-11-21T03:10:21;4.18;;;2.38;;
41436;SDS011;27178;49.460;10.850;2023-11-21T03:12:50;4.60;;;2.10;;
41436;SDS011;27178;49.460;10.850;2023-11-21T03:15:19;2.35;;;2.03;;
41436;SDS011;27178;49.460;10.850;2023-11-21T03:17:47;5.60;;;2.75;;
41436;SDS011;27178;49.460;10.850;2023-11-21T03:20:16;3.00;;;2.50;;
41436;SDS011;27178;49.460;10.850;2023-11-21T03:22:45;2.47;;;2.28;;
41436;SDS011;27178;49.460;10.850;2023-11-21T03:25:13;3.58;;;2.53;;
41436;SDS011;27178;49.460;10.850;2023-11-21T03:27:45;2.53;;;2.22;;
41436;SDS011;27178;49.460;10.850;2023-11-21T03:30:14;5.15;;;3.28;;
41436;SDS011;27178;49.460;10.850;2023-11-21T03:32:43;4.18;;;3.78;;
41436;SDS011;27178;49.460;10.850;2023-11-21T03:35:12;4.28;;;2.85;;
41436;SDS011;27178;49.460;10.850;2023-11-21T03:37:41;2.85;;;2.10;;
41436;SDS011;27178;49.460;10.850;2023-11-21T03:40:10;4.00;;;2.95;;
41436;SDS011;27178;49.460;10.850;2023-11-21T03:42:39;3.25;;;2.60;;
41436;SDS011;27178;49.460;10.850;2023-11-21T03:45:09;3.22;;;2.90;;
41436;SDS011;27178;49.460;10.850;2023-11-21T03:47:39;2.63;;;2.42;;
41436;SDS011;27178;49.460;10.850;2023-11-21T03:50:09;4.32;;;2.72;;
41436;SDS011;27178;49.460;10.850;2023-11-21T03:52:38;4.38;;;2.97;;
41436;SDS011;27178;49.460;10.850;2023-11-21T03:55:07;4.87;;;2.70;;
41436;SDS011;27178;49.460;10.850;2023-11-21T03:57:36;3.63;;;2.60;;
41436;SDS011;27178;49.460;10.850;2023-11-21T04:00:06;3.33;;;2.90;;
41436;SDS011;27178;49.460;10.850;2023-11-21T04:02:38;3.17;;;2.87;;
41436;SDS011;27178;49.460;10.850;2023-11-21T04:05:07;3.47;;;2.73;;
41436;SDS011;27178;49.460;10.850;2023-11-21T04:07:36;4.85;;;3.45;;
41436;SDS011;27178;49.460;10.850;2023-11-21T04:10:06;4.03;;;2.90;;
41436;SDS011;27178;49.460;10.850;2023-11-21T04:12:36;5.13;;;2.73;;
41436;SDS011;27178;49.460;10.850;2023-11-21T04:15:05;3.03;;;2.72;;
41436;SDS011;27178;49.460;10.850;2023-11-21T04:17:35;3.35;;;2.72;;
41436;SDS011;27178;49.460;10.850;2023-11-21T04:20:06;3.20;;;2.70;;
41436;SDS011;27178;49.460;10.850;2023-11-21T04:22:37;3.45;;;2.70;;
41436;SDS011;27178;49.460;10.850;2023-11-21T04:25:08;3.00;;;2.65;;
41436;SDS011;27178;49.460;10.850;2023-11-21T04:27:39;3.95;;;2.80;;
41436;SDS011;27178;49.460;10.850;2023-11-21T04:30:10;3.53;;;2.67;;
41436;SDS011;27178;49.460;10.850;2023-11-21T04:32:41;2.85;;;2.15;;
41436;SDS011;27178;49.460;10.850;2023-11-21T04:35:10;3.75;;;3.28;;
41436;SDS011;27178;49.460;10.850;2023-11-21T04:37:38;3.87;;;2.90;;
41436;SDS011;27178;49.460;10.850;2023-11-21T04:40:07;3.25;;;2.60;;
41436;SDS011;27178;49.460;10.850;2023-11-21T04:42:36;5.50;;;2.90;;
41436;SDS011;27178;49.460;10.850;2023-11-21T04:45:05;3.78;;;3.00;;
41436;SDS011;27178;49.460;10.850;2023-11-21T04:47:38;3.10;;;2.75;;
41436;SDS011;27178;49.460;10.850;2023-11-21T04:50:08;3.20;;;2.60;;
41436;SDS011;27178;49.460;10.850;2023-11-21T04:52:37;3.90;;;3.00;;
41436;SDS011;27178;49.460;10.850;2023-11-21T04:55:06;2.75;;;2.53;;
41436;SDS011;27178;49.460;10.850;2023-11-21T04:57:37;7.90;;;3.22;;
41436;SDS011;27178;49.460;10.850;2023-11-21T05:00:09;3.42;;;2.50;;
41436;SDS011;27178;49.460;10.850;2023-11-21T05:02:39;3.63;;;2.55;;
41436;SDS011;27178;49.460;10.850;2023-11-21T05:05:10;3.28;;;2.30;;
41436;SDS011;27178;49.460;10.850;2023-11-21T05:07:38;4.57;;;2.58;;
41436;SDS011;27178;49.460;10.850;2023-11-21T05:10:08;3.08;;;2.78;;
41436;SDS011;27178;49.460;10.850;2023-11-21T05:12:39;3.00;;;2.80;;
41436;SDS011;27178;49.460;10.850;2023-11-21T05:15:08;3.65;;;3.08;;
41436;SDS011;27178;49.460;10.850;2023-11-21T05:17:38;3.17;;;2.40;;
41436;SDS011;27178;49.460;10.850;2023-11-21T05:20:10;2.85;;;2.42;;
41436;SDS011;27178;49.460;10.850;2023-11-21T05:22:40;2.60;;;2.40;;
41436;SDS011;27178;49.460;10.850;2023-11-21T05:25:09;2.45;;;2.25;;
41436;SDS011;27178;49.460;10.850;2023-11-21T05:27:38;3.70;;;1.92;;
41436;SDS011;27178;49.460;10.850;2023-11-21T05:30:06;2.00;;;1.90;;
41436;SDS011;27178;49.460;10.850;2023-11-21T05:32:39;2.40;;;2.10;;
41436;SDS011;27178;49.460;10.850;2023-11-21T05:35:10;1.85;;;1.73;;
41436;SDS011;27178;49.460;10.850;2023-11-21T05:37:43;2.53;;;2.33;;
41436;SDS011;27178;49.460;10.850;2023-11-21T05:40:13;4.30;;;2.60;;
41436;SDS011;27178;49.460;10.850;2023-11-21T05:42:42;2.50;;;2.20;;
41436;SDS011;27178;49.460;10.850;2023-11-21T05:45:12;2.67;;;2.20;;
41436;SDS011;27178;49.460;10.850;2023-11-21T05:47:41;2.83;;;1.83;;
41436;SDS011;27178;49.460;10.850;2023-11-21T05:50:14;1.85;;;1.75;;
41436;SDS011;27178;49.460;10.850;2023-11-21T05:52:44;2.53;;;2.00;;
41436;SDS011;27178;49.460;10.850;2023-11-21T05:55:13;2.83;;;2.22;;
41436;SDS011;27178;49.460;10.850;2023-11-21T05:57:42;1.80;;;1.70;;
41436;SDS011;27178;49.460;10.850;2023-11-21T06:00:12;2.08;;;1.80;;
41436;SDS011;27178;49.460;10.850;2023-11-21T06:03:02;2.42;;;1.83;;
41436;SDS011;27178;49.460;10.850;2023-11-21T06:05:34;4.55;;;2.10;;
41436;SDS011;27178;49.460;10.850;2023-11-21T06:08:03;2.22;;;1.75;;
41436;SDS011;27178;49.460;10.850;2023-11-21T06:10:33;2.63;;;2.25;;
41436;SDS011;27178;49.460;10.850;2023-11-21T06:13:01;3.33;;;2.30;;
41436;SDS011;27178;49.460;10.850;2023-11-21T06:15:30;3.03;;;2.27;;
41436;SDS011;27178;49.460;10.850;2023-11-21T06:17:58;3.42;;;1.92;;
41436;SDS011;27178;49.460;10.850;2023-11-21T06:20:27;2.28;;;2.08;;
41436;SDS011;27178;49.460;10.850;2023-11-21T06:22:57;2.27;;;2.07;;
41436;SDS011;27178;49.460;10.850;2023-11-21T06:25:30;4.15;;;3.08;;
41436;SDS011;27178;49.460;10.850;2023-11-21T06:27:59;3.60;;;3.30;;
41436;SDS011;27178;49.460;10.850;2023-11-21T06:30:28;3.53;;;3.10;;
41436;SDS011;27178;49.460;10.850;2023-11-21T06:32:56;3.40;;;3.10;;
41436;SDS011;27178;49.460;10.850;2023-11-21T06:35:25;3.35;;;3.05;;
41436;SDS011;27178;49.460;10.850;2023-11-21T06:37:54;3.13;;;2.92;;
41436;SDS011;27178;49.460;10.850;2023-11-21T06:40:25;2.80;;;2.60;;
41436;SDS011;27178;49.460;10.850;2023-11-21T06:42:54;3.13;;;2.83;;
41436;SDS011;27178;49.460;10.850;2023-11-21T06:45:22;2.75;;;2.47;;
41436;SDS011;27178;49.460;10.850;2023-11-21T06:47:50;3.20;;;2.80;;
41436;SDS011;27178;49.460;10.850;2023-11-21T06:50:19;3.80;;;2.67;;
41436;SDS011;27178;49.460;10.850;2023-11-21T06:52:47;4.20;;;2.63;;
41436;SDS011;27178;49.460;10.850;2023-11-21T06:55:16;2.53;;;2.20;;
41436;SDS011;27178;49.460;10.850;2023-11-21T06:57:46;3.00;;;2.63;;
41436;SDS011;27178;49.460;10.850;2023-11-21T07:00:15;3.20;;;2.40;;
41436;SDS011;27178;49.460;10.850;2023-11-21T07:02:45;2.67;;;2.22;;
41436;SDS011;27178;49.460;10.850;2023-11-21T07:05:14;2.95;;;2.40;;
41436;SDS011;27178;49.460;10.850;2023-11-21T07:07:48;2.30;;;2.13;;
41436;SDS011;27178;49.460;10.850;2023-11-21T07:10:17;3.25;;;2.90;;
41436;SDS011;27178;49.460;10.850;2023-11-21T07:12:47;2.65;;;2.45;;
41436;SDS011;27178;49.460;10.850;2023-11-21T07:15:15;2.17;;;2.05;;
41436;SDS011;27178;49.460;10.850;2023-11-21T07:17:46;2.63;;;2.42;;
41436;SDS011;27178;49.460;10.850;2023-11-21T07:20:15;2.72;;;2.47;;
41436;SDS011;27178;49.460;10.850;2023-11-21T07:22:45;3.40;;;2.70;;
41436;SDS011;27178;49.460;10.850;2023-11-21T07:25:13;2.53;;;2.33;;
41436;SDS011;27178;49.460;10.850;2023-11-21T07:27:41;3.17;;;2.50;;
41436;SDS011;27178;49.460;10.850;2023-11-21T07:30:16;3.05;;;2.78;;
41436;SDS011;27178;49.460;10.850;2023-11-21T07:32:44;3.33;;;3.03;;
41436;SDS011;27178;49.460;10.850;2023-11-21T07:35:16;3.20;;;2.90;;
41436;SDS011;27178;49.460;10.850;2023-11-21T07:37:44;2.70;;;2.50;;
41436;SDS011;27178;49.460;10.850;2023-11-21T07:40:14;4.57;;;2.70;;
41436;SDS011;27178;49.460;10.850;2023-11-21T07:42:43;2.75;;;2.55;;
41436;SDS011;27178;49.460;10.850;2023-11-21T07:45:12;2.75;;;2.55;;
41436;SDS011;27178;49.460;10.850;2023-11-21T07:47:43;3.38;;;2.78;;
41436;SDS011;27178;49.460;10.850;2023-11-21T07:50:11;3.55;;;2.85;;
41436;SDS011;27178;49.460;10.850;2023-11-21T07:52:40;3.13;;;2.65;;
41436;SDS011;27178;49.460;10.850;2023-11-21T07:55:08;2.90;;;2.60;;
41436;SDS011;27178;49.460;10.850;2023-11-21T07:57:38;3.80;;;2.65;;
41436;SDS011;27178;49.460;10.850;2023-11-21T08:00:06;2.67;;;2.47;;
41436;SDS011;27178;49.460;10.850;2023-11-21T08:02:39;2.75;;;2.50;;
41436;SDS011;27178;49.460;10.850;2023-11-21T08:05:11;2.75;;;2.55;;
41436;SDS011;27178;49.460;10.850;2023-11-21T08:07:50;2.72;;;2.10;;
41436;SDS011;27178;49.460;10.850;2023-11-21T08:10:19;3.08;;;2.78;;
41436;SDS011;27178;49.460;10.850;2023-11-21T08:12:48;2.50;;;2.25;;
41436;SDS011;27178;49.460;10.850;2023-11-21T08:15:18;2.80;;;2.60;;
41436;SDS011;27178;49.460;10.850;2023-11-21T08:17:47;2.38;;;2.17;;
41436;SDS011;27178;49.460;10.850;2023-11-21T08:20:17;2.50;;;2.30;;
41436;SDS011;27178;49.460;10.850;2023-11-21T08:22:46;3.38;;;2.22;;
41436;SDS011;27178;49.460;10.850;2023-11-21T08:25:15;3.05;;;2.38;;
41436;SDS011;27178;49.460;10.850;2023-11-21T08:27:46;2.35;;;2.15;;
41436;SDS011;27178;49.460;10.850;2023-11-21T08:30:15;2.80;;;2.30;;
41436;SDS011;27178;49.460;10.850;2023-11-21T08:32:46;2.40;;;2.10;;
41436;SDS011;27178;49.460;10.850;2023-11-21T08:35:15;2.08;;;1.88;;
41436;SDS011;27178;49.460;10.850;2023-11-21T08:37:44;2.70;;;2.50;;
41436;SDS011;27178;49.460;10.850;2023-11-21T08:40:14;3.17;;;2.65;;
41436;SDS011;27178;49.460;10.850;2023-11-21T08:42:43;2.88;;;2.65;;
41436;SDS011;27178;49.460;10.850;2023-11-21T08:45:13;2.95;;;2.35;;
41436;SDS011;27178;49.460;10.850;2023-11-21T08:47:44;2.85;;;2.55;;
41436;SDS011;27178;49.460;10.850;2023-11-21T08:50:13;2.88;;;2.22;;
41436;SDS011;27178;49.460;10.850;2023-11-21T08:52:43;2.80;;;2.13;;
41436;SDS011;27178;49.460;10.850;2023-11-21T08:55:13;3.88;;;2.60;;
41436;SDS011;27178;49.460;10.850;2023-11-21T08:57:43;3.90;;;2.50;;
41436;SDS011;27178;49.460;10.850;2023-11-21T09:00:12;2.50;;;2.30;;
41436;SDS011;27178;49.460;10.850;2023-11-21T09:02:44;3.00;;;2.30;;
41436;SDS011;27178;49.460;10.850;2023-11-21T09:05:13;2.65;;;2.45;;
41436;SDS011;27178;49.460;10.850;2023-11-21T09:07:43;2.50;;;2.28;;
41436;SDS011;27178;49.460;10.850;2023-11-21T09:10:13;3.00;;;2.70;;
41436;SDS011;27178;49.460;10.850;2023-11-21T09:12:41;3.22;;;2.42;;
41436;SDS011;27178;49.460;10.850;2023-11-21T09:15:10;3.20;;;2.85;;
41436;SDS011;27178;49.460;10.850;2023-11-21T09:17:39;3.83;;;3.50;;
41436;SDS011;27178;49.460;10.850;2023-11-21T09:20:08;3.83;;;3.53;;
41436;SDS011;27178;49.460;10.850;2023-11-21T09:22:37;3.22;;;2.97;;
41436;SDS011;27178;49.460;10.850;2023-11-21T09:25:08;3.10;;;2.80;;
41436;SDS011;27178;49.460;10.850;2023-11-21T09:27:36;3.60;;;3.30;;
41436;SDS011;27178;49.460;10.850;2023-11-21T09:30:05;4.20;;;3.80;;
41436;SDS011;27178;49.460;10.850;2023-11-21T09:32:37;4.82;;;3.50;;
41436;SDS011;27178;49.460;10.850;2023-11-21T09:35:07;3.83;;;3.50;;
41436;SDS011;27178;49.460;10.850;2023-11-21T09:37:36;3.67;;;3.38;;
41436;SDS011;27178;49.460;10.850;2023-11-21T09:40:06;4.10;;;3.70;;
41436;SDS011;27178;49.460;10.850;2023-11-21T09:42:44;3.75;;;3.45;;
41436;SDS011;27178;49.460;10.850;2023-11-21T09:45:17;4.10;;;3.80;;
41436;SDS011;27178;49.460;10.850;2023-11-21T09:47:53;3.88;;;3.58;;
41436;SDS011;27178;49.460;10.850;2023-11-21T09:50:22;4.05;;;3.75;;
41436;SDS011;27178;49.460;10.850;2023-11-21T09:52:57;4.50;;;3.63;;
41436;SDS011;27178;49.460;10.850;2023-11-21T09:55:35;4.43;;;4.03;;
41436;SDS011;27178;49.460;10.850;2023-11-21T09:58:07;5.55;;;3.50;;
41436;SDS011;27178;49.460;10.850;2023-11-21T10:00:40;4.25;;;3.72;;
41436;SDS011;27178;49.460;10.850;2023-11-21T10:03:09;4.15;;;3.75;;
41436;SDS011;27178;49.460;10.850;2023-11-21T10:05:39;3.45;;;3.17;;
41436;SDS011;27178;49.460;10.850;2023-11-21T10:08:08;4.00;;;3.60;;
41436;SDS011;27178;49.460;10.850;2023-11-21T10:10:41;3.63;;;3.33;;
41436;SDS011;27178;49.460;10.850;2023-11-21T10:13:12;3.92;;;3.50;;
41436;SDS011;27178;49.460;10.850;2023-11-21T10:15:44;3.53;;;3.17;;
41436;SDS011;27178;49.460;10.850;2023-11-21T10:18:16;3.63;;;3.08;;
41436;SDS011;27178;49.460;10.850;2023-11-21T10:20:46;2.75;;;2.55;;
41436;SDS011;27178;49.460;10.850;2023-11-21T10:23:20;4.57;;;2.47;;
41436;SDS011;27178;49.460;10.850;2023-11-21T10:25:51;3.00;;;2.80;;
41436;SDS011;27178;49.460;10.850;2023-11-21T10:28:27;2.80;;;2.55;;
41436;SDS011;27178;49.460;10.850;2023-11-21T10:30:55;3.17;;;2.88;;
41436;SDS011;27178;49.460;10.850;2023-11-21T10:33:27;3.05;;;2.70;;
41436;SDS011;27178;49.460;10.850;2023-11-21T10:35:56;2.90;;;2.67;;
41436;SDS011;27178;49.460;10.850;2023-11-21T10:38:26;2.90;;;2.60;;
41436;SDS011;27178;49.460;10.850;2023-11-21T10:40:56;3.72;;;2.50;;
41436;SDS011;27178;49.460;10.850;2023-11-21T10:43:26;2.25;;;2.15;;
41436;SDS011;27178;49.460;10.850;2023-11-21T10:45:57;4.05;;;2.30;;
41436;SDS011;27178;49.460;10.850;2023-11-21T10:48:27;2.47;;;2.28;;
41436;SDS011;27178;49.460;10.850;2023-11-21T10:50:55;2.35;;;2.17;;
41436;SDS011;27178;49.460;10.850;2023-11-21T10:53:24;3.47;;;2.72;;
41436;SDS011;27178;49.460;10.850;2023-11-21T10:56:05;2.72;;;2.50;;
41436;SDS011;27178;49.460;10.850;2023-11-21T10:58:36;2.33;;;2.15;;
41436;SDS011;27178;49.460;10.850;2023-11-21T11:01:07;2.63;;;2.42;;
41436;SDS011;27178;49.460;10.850;2023-11-21T11:03:38;2.60;;;2.40;;
41436;SDS011;27178;49.460;10.850;2023-11-21T11:06:07;2.50;;;2.30;;
41436;SDS011;27178;49.460;10.850;2023-11-21T11:08:38;2.97;;;2.38;;
41436;SDS011;27178;49.460;10.850;2023-11-21T11:11:09;2.20;;;2.00;;
41436;SDS011;27178;49.460;10.850;2023-11-21T11:13:39;2.75;;;2.55;;
41436;SDS011;27178;49.460;10.850;2023-11-21T11:16:12;2.88;;;2.67;;
41436;SDS011;27178;49.460;10.850;2023-11-21T11:18:44;3.38;;;3.08;;
41436;SDS011;27178;49.460;10.850;2023-11-21T11:21:18;2.90;;;2.70;;
41436;SDS011;27178;49.460;10.850;2023-11-21T11:23:58;2.45;;;2.30;;
41436;SDS011;27178;49.460;10.850;2023-11-21T11:26:39;2.47;;;2.28;;
41436;SDS011;27178;49.460;10.850;2023-11-21T11:29:16;2.58;;;2.25;;
41436;SDS011;27178;49.460;10.850;2023-11-21T11:31:55;2.53;;;2.33;;
41436;SDS011;27178;49.460;10.850;2023-11-21T11:34:32;2.42;;;2.22;;
41436;SDS011;27178;49.460;10.850;2023-11-21T11:37:04;2.78;;;2.22;;
41436;SDS011;27178;49.460;10.850;2023-11-21T11:39:35;2.38;;;2.05;;
41436;SDS011;27178;49.460;10.850;2023-11-21T11:42:06;2.17;;;2.00;;
41436;SDS011;27178;49.460;10.850;2023-11-21T11:44:48;2.35;;;2.00;;
41436;SDS011;27178;49.460;10.850;2023-11-21T11:47:23;1.83;;;1.67;;
41436;SDS011;27178;49.460;10.850;2023-11-21T11:50:04;2.45;;;2.25;;
41436;SDS011;27178;49.460;10.850;2023-11-21T11:52:38;2.05;;;1.95;;
41436;SDS011;27178;49.460;10.850;2023-11-21T11:55:09;2.60;;;2.13;;
41436;SDS011;27178;49.460;10.850;2023-11-21T11:57:39;3.85;;;2.60;;
41436;SDS011;27178;49.460;10.850;2023-11-21T12:00:15;2.65;;;2.45;;
41436;SDS011;27178;49.460;10.850;2023-11-21T12:02:47;2.53;;;2.33;;
41436;SDS011;27178;49.460;10.850;2023-11-21T12:05:17;2.60;;;2.40;;
41436;SDS011;27178;49.460;10.850;2023-11-21T12:07:47;2.35;;;2.17;;
41436;SDS011;27178;49.460;10.850;2023-11-21T12:10:20;6.10;;;2.95;;
41436;SDS011;27178;49.460;10.850;2023-11-21T12:12:53;3.63;;;2.40;;
41436;SDS011;27178;49.460;10.850;2023-11-21T12:15:23;2.97;;;2.50;;
41436;SDS011;27178;49.460;10.850;2023-11-21T12:17:52;2.97;;;2.60;;
41436;SDS011;27178;49.460;10.850;2023-11-21T12:20:21;2.80;;;2.60;;
41436;SDS011;27178;49.460;10.850;2023-11-21T12:22:50;3.03;;;2.72;;
41436;SDS011;27178;49.460;10.850;2023-11-21T12:25:20;2.60;;;2.40;;
41436;SDS011;27178;49.460;10.850;2023-11-21T12:27:50;2.55;;;2.30;;
41436;SDS011;27178;49.460;10.850;2023-11-21T12:30:21;2.75;;;2.55;;
41436;SDS011;27178;49.460;10.850;2023-11-21T12:32:51;2.58;;;2.38;;
41436;SDS011;27178;49.460;10.850;2023-11-21T12:35:23;3.28;;;2.42;;
41436;SDS011;27178;49.460;10.850;2023-11-21T12:37:54;4.25;;;2.40;;
41436;SDS011;27178;49.460;10.850;2023-11-21T12:40:24;2.65;;;2.45;;
41436;SDS011;27178;49.460;10.850;2023-11-21T12:42:55;2.55;;;2.35;;
41436;SDS011;27178;49.460;10.850;2023-11-21T12:45:25;2.75;;;2.17;;
41436;SDS011;27178;49.460;10.850;2023-11-21T12:47:56;2.53;;;2.33;;
41436;SDS011;27178;49.460;10.850;2023-11-21T12:50:27;2.55;;;2.35;;
41436;SDS011;27178;49.460;10.850;2023-11-21T12:52:58;2.58;;;2.30;;
41436;SDS011;27178;49.460;10.850;2023-11-21T12:55:30;2.75;;;2.55;;
41436;SDS011;27178;49.460;10.850;2023-11-21T12:58:02;2.95;;;2.75;;
41436;SDS011;27178;49.460;10.850;2023-11-21T13:00:36;3.63;;;3.33;;
41436;SDS011;27178;49.460;10.850;2023-11-21T13:03:07;3.65;;;3.35;;
41436;SDS011;27178;49.460;10.850;2023-11-21T13:05:39;3.47;;;3.15;;
41436;SDS011;27178;49.460;10.850;2023-11-21T13:08:14;3.20;;;2.95;;
41436;SDS011;27178;49.460;10.850;2023-11-21T13:10:47;3.85;;;3.00;;
41436;SDS011;27178;49.460;10.850;2023-11-21T13:13:18;4.55;;;3.85;;
41436;SDS011;27178;49.460;10.850;2023-11-21T13:15:50;3.40;;;3.10;;
41436;SDS011;27178;49.460;10.850;2023-11-21T13:18:22;4.25;;;3.85;;
41436;SDS011;27178;49.460;10.850;2023-11-21T13:20:52;5.15;;;3.72;;
41436;SDS011;27178;49.460;10.850;2023-11-21T13:23:21;4.78;;;3.88;;
41436;SDS011;27178;49.460;10.850;2023-11-21T13:25:50;3.45;;;3.00;;
41436;SDS011;27178;49.460;10.850;2023-11-21T13:28:31;3.15;;;2.75;;
41436;SDS011;27178;49.460;10.850;2023-11-21T13:31:01;3.03;;;2.80;;
41436;SDS011;27178;49.460;10.850;2023-11-21T13:33:37;3.47;;;3.13;;
41436;SDS011;27178;49.460;10.850;2023-11-21T13:36:09;3.40;;;2.80;;
41436;SDS011;27178;49.460;10.850;2023-11-21T13:38:40;3.10;;;2.78;;
41436;SDS011;27178;49.460;10.850;2023-11-21T13:41:11;2.58;;;2.38;;
41436;SDS011;27178;49.460;10.850;2023-11-21T13:43:42;4.25;;;2.40;;
41436;SDS011;27178;49.460;10.850;2023-11-21T13:46:17;2.70;;;2.50;;
41436;SDS011;27178;49.460;10.850;2023-11-21T13:48:49;2.83;;;2.40;;
41436;SDS011;27178;49.460;10.850;2023-11-21T13:51:23;3.28;;;2.50;;
41436;SDS011;27178;49.460;10.850;2023-11-21T13:54:01;4.28;;;2.13;;
41436;SDS011;27178;49.460;10.850;2023-11-21T13:56:32;2.67;;;2.47;;
41436;SDS011;27178;49.460;10.850;2023-11-21T13:59:02;2.92;;;2.22;;
41436;SDS011;27178;49.460;10.850;2023-11-21T14:01:39;3.60;;;2.72;;
41436;SDS011;27178;49.460;10.850;2023-11-21T14:04:23;2.83;;;2.63;;
41436;SDS011;27178;49.460;10.850;2023-11-21T14:07:17;6.75;;;4.40;;
41436;SDS011;27178;49.460;10.850;2023-11-21T14:09:56;4.10;;;3.72;;
41436;SDS011;27178;49.460;10.850;2023-11-21T14:12:25;3.60;;;3.20;;
41436;SDS011;27178;49.460;10.850;2023-11-21T14:14:56;3.53;;;2.85;;
41436;SDS011;27178;49.460;10.850;2023-11-21T14:17:24;2.53;;;2.33;;
41436;SDS011;27178;49.460;10.850;2023-11-21T14:19:52;3.17;;;2.63;;
41436;SDS011;27178;49.460;10.850;2023-11-21T14:22:22;5.72;;;2.67;;
41436;SDS011;27178;49.460;10.850;2023-11-21T14:24:52;3.22;;;2.85;;
41436;SDS011;27178;49.460;10.850;2023-11-21T14:27:22;3.35;;;2.40;;
41436;SDS011;27178;49.460;10.850;2023-11-21T14:29:51;3.38;;;2.13;;
41436;SDS011;27178;49.460;10.850;2023-11-21T14:32:21;3.92;;;2.20;;
41436;SDS011;27178;49.460;10.850;2023-11-21T14:34:50;3.88;;;2.22;;
41436;SDS011;27178;49.460;10.850;2023-11-21T14:37:19;5.88;;;3.90;;
41436;SDS011;27178;49.460;10.850;2023-11-21T14:39:47;4.53;;;4.13;;
41436;SDS011;27178;49.460;10.850;2023-11-21T14:42:16;4.00;;;2.95;;
41436;SDS011;27178;49.460;10.850;2023-11-21T14:44:51;6.45;;;4.95;;
41436;SDS011;27178;49.460;10.850;2023-11-21T14:47:23;5.30;;;3.47;;
41436;SDS011;27178;49.460;10.850;2023-11-21T14:49:54;2.92;;;2.63;;
41436;SDS011;27178;49.460;10.850;2023-11-21T14:52:26;6.72;;;2.85;;